sensor_id;sensor_type;location;lat;lon;timestamp;P1;durP1;ratioP1;P2;durP2;ratioP2
83495;SDS011;73431;40.794;43.836;2024-01-15T00:02:14;20.10;;;8.98;;
83495;SDS011;73431;40.794;43.836;2024-01-15T00:04:41;16.63;;;8.07;;
83495;SDS011;73431;40.794;43.836;2024-01-15T00:09:37;17.48;;;8.55;;
83495;SDS011;73431;40.794;43.836;2024-01-15T00:12:05;11.98;;;6.47;;
83495;SDS011;73431;40.794;43.836;2024-01-15T00:14:33;14.25;;;6.93;;
83495;SDS011;73431;40.794;43.836;2024-01-15T00:17:01;16.95;;;9.43;;
83495;SDS011;73431;40.794;43.836;2024-01-15T00:19:29;32.20;;;8.15;;
83495;SDS011;73431;40.794;43.836;2024-01-15T00:21:59;14.57;;;7.38;;
83495;SDS011;73431;40.794;43.836;2024-01-15T00:24:27;15.82;;;7.95;;
83495;SDS011;73431;40.794;43.836;2024-01-15T00:26:55;9.23;;;5.20;;
83495;SDS011;73431;40.794;43.836;2024-01-15T00:29:23;15.32;;;5.95;;
83495;SDS011;73431;40.794;43.836;2024-01-15T00:31:51;14.07;;;5.53;;
83495;SDS011;73431;40.794;43.836;2024-01-15T00:34:20;18.90;;;5.40;;
83495;SDS011;73431;40.794;43.836;2024-01-15T00:36:47;13.35;;;5.75;;
83495;SDS011;73431;40.794;43.836;2024-01-15T00:39:15;17.13;;;6.97;;
83495;SDS011;73431;40.794;43.836;2024-01-15T00:41:44;13.13;;;5.70;;
83495;SDS011;73431;40.794;43.836;2024-01-15T00:44:11;23.08;;;5.97;;
83495;SDS011;73431;40.794;43.836;2024-01-15T00:46:43;16.10;;;6.30;;
83495;SDS011;73431;40.794;43.836;2024-01-15T00:49:13;11.43;;;5.82;;
83495;SDS011;73431;40.794;43.836;2024-01-15T00:51:41;12.00;;;6.60;;
83495;SDS011;73431;40.794;43.836;2024-01-15T00:54:09;10.98;;;4.80;;
83495;SDS011;73431;40.794;43.836;2024-01-15T00:56:37;19.80;;;6.70;;
83495;SDS011;73431;40.794;43.836;2024-01-15T00:59:04;15.02;;;7.50;;
83495;SDS011;73431;40.794;43.836;2024-01-15T01:01:32;14.65;;;6.70;;
83495;SDS011;73431;40.794;43.836;2024-01-15T01:04:00;12.63;;;6.18;;
83495;SDS011;73431;40.794;43.836;2024-01-15T01:08:59;12.35;;;6.70;;
83495;SDS011;73431;40.794;43.836;2024-01-15T01:11:27;15.10;;;5.68;;
83495;SDS011;73431;40.794;43.836;2024-01-15T01:13:55;10.48;;;6.38;;
83495;SDS011;73431;40.794;43.836;2024-01-15T01:16:24;14.75;;;7.30;;
83495;SDS011;73431;40.794;43.836;2024-01-15T01:18:51;14.23;;;6.90;;
83495;SDS011;73431;40.794;43.836;2024-01-15T01:21:20;11.85;;;7.18;;
83495;SDS011;73431;40.794;43.836;2024-01-15T01:23:48;12.25;;;5.95;;
83495;SDS011;73431;40.794;43.836;2024-01-15T01:26:16;11.85;;;7.57;;
83495;SDS011;73431;40.794;43.836;2024-01-15T01:28:44;24.60;;;7.57;;
83495;SDS011;73431;40.794;43.836;2024-01-15T01:31:12;14.10;;;6.80;;
83495;SDS011;73431;40.794;43.836;2024-01-15T01:33:40;17.25;;;6.95;;
83495;SDS011;73431;40.794;43.836;2024-01-15T01:36:09;15.35;;;7.38;;
83495;SDS011;73431;40.794;43.836;2024-01-15T01:38:37;21.08;;;9.63;;
83495;SDS011;73431;40.794;43.836;2024-01-15T01:41:05;19.58;;;8.98;;
83495;SDS011;73431;40.794;43.836;2024-01-15T01:43:33;26.55;;;9.85;;
83495;SDS011;73431;40.794;43.836;2024-01-15T01:46:01;17.75;;;10.23;;
83495;SDS011;73431;40.794;43.836;2024-01-15T01:48:30;15.63;;;9.57;;
83495;SDS011;73431;40.794;43.836;2024-01-15T01:51:00;12.93;;;7.43;;
83495;SDS011;73431;40.794;43.836;2024-01-15T01:53:32;15.35;;;7.15;;
83495;SDS011;73431;40.794;43.836;2024-01-15T01:56:02;16.90;;;6.10;;
83495;SDS011;73431;40.794;43.836;2024-01-15T02:00:59;15.65;;;6.90;;
83495;SDS011;73431;40.794;43.836;2024-01-15T02:03:27;16.17;;;5.90;;
83495;SDS011;73431;40.794;43.836;2024-01-15T02:05:56;23.38;;;6.55;;
83495;SDS011;73431;40.794;43.836;2024-01-15T02:08:24;13.60;;;6.78;;
83495;SDS011;73431;40.794;43.836;2024-01-15T02:10:53;9.90;;;4.95;;
83495;SDS011;73431;40.794;43.836;2024-01-15T02:13:20;7.97;;;4.43;;
83495;SDS011;73431;40.794;43.836;2024-01-15T02:15:48;7.47;;;3.42;;
83495;SDS011;73431;40.794;43.836;2024-01-15T02:18:16;10.07;;;5.63;;
83495;SDS011;73431;40.794;43.836;2024-01-15T02:20:44;8.88;;;5.13;;
83495;SDS011;73431;40.794;43.836;2024-01-15T02:23:12;12.85;;;4.45;;
83495;SDS011;73431;40.794;43.836;2024-01-15T02:25:42;10.13;;;4.72;;
83495;SDS011;73431;40.794;43.836;2024-01-15T02:28:15;10.27;;;5.00;;
83495;SDS011;73431;40.794;43.836;2024-01-15T02:30:44;7.38;;;4.57;;
83495;SDS011;73431;40.794;43.836;2024-01-15T02:33:13;12.07;;;5.03;;
83495;SDS011;73431;40.794;43.836;2024-01-15T02:35:41;8.15;;;4.50;;
83495;SDS011;73431;40.794;43.836;2024-01-15T02:38:09;21.25;;;4.43;;
83495;SDS011;73431;40.794;43.836;2024-01-15T02:40:38;10.13;;;4.93;;
83495;SDS011;73431;40.794;43.836;2024-01-15T02:43:06;8.70;;;3.80;;
83495;SDS011;73431;40.794;43.836;2024-01-15T02:45:34;6.03;;;4.35;;
83495;SDS011;73431;40.794;43.836;2024-01-15T02:48:02;7.95;;;4.20;;
83495;SDS011;73431;40.794;43.836;2024-01-15T02:50:30;9.35;;;4.85;;
83495;SDS011;73431;40.794;43.836;2024-01-15T02:52:58;16.83;;;5.40;;
83495;SDS011;73431;40.794;43.836;2024-01-15T02:55:26;13.52;;;6.93;;
83495;SDS011;73431;40.794;43.836;2024-01-15T02:57:56;13.82;;;6.85;;
83495;SDS011;73431;40.794;43.836;2024-01-15T03:00:24;9.35;;;5.30;;
83495;SDS011;73431;40.794;43.836;2024-01-15T03:02:52;9.98;;;5.28;;
83495;SDS011;73431;40.794;43.836;2024-01-15T03:05:19;6.90;;;5.25;;
83495;SDS011;73431;40.794;43.836;2024-01-15T03:07:48;11.75;;;4.88;;
83495;SDS011;73431;40.794;43.836;2024-01-15T03:12:43;7.28;;;4.10;;
83495;SDS011;73431;40.794;43.836;2024-01-15T03:15:11;40.00;;;5.38;;
83495;SDS011;73431;40.794;43.836;2024-01-15T03:17:41;8.38;;;5.28;;
83495;SDS011;73431;40.794;43.836;2024-01-15T03:20:11;32.08;;;6.10;;
83495;SDS011;73431;40.794;43.836;2024-01-15T03:22:39;22.45;;;7.63;;
83495;SDS011;73431;40.794;43.836;2024-01-15T03:25:07;11.75;;;6.72;;
83495;SDS011;73431;40.794;43.836;2024-01-15T03:27:35;16.10;;;9.00;;
83495;SDS011;73431;40.794;43.836;2024-01-15T03:30:03;17.05;;;7.50;;
83495;SDS011;73431;40.794;43.836;2024-01-15T03:32:32;28.45;;;8.35;;
83495;SDS011;73431;40.794;43.836;2024-01-15T03:34:59;16.05;;;6.97;;
83495;SDS011;73431;40.794;43.836;2024-01-15T03:37:28;13.45;;;8.43;;
83495;SDS011;73431;40.794;43.836;2024-01-15T03:39:56;20.42;;;9.07;;
83495;SDS011;73431;40.794;43.836;2024-01-15T03:42:24;27.00;;;8.60;;
83495;SDS011;73431;40.794;43.836;2024-01-15T03:44:51;16.48;;;8.25;;
83495;SDS011;73431;40.794;43.836;2024-01-15T03:47:19;12.07;;;6.90;;
83495;SDS011;73431;40.794;43.836;2024-01-15T03:49:46;31.70;;;9.75;;
83495;SDS011;73431;40.794;43.836;2024-01-15T03:54:42;20.67;;;10.38;;
83495;SDS011;73431;40.794;43.836;2024-01-15T03:57:10;24.63;;;9.77;;
83495;SDS011;73431;40.794;43.836;2024-01-15T03:59:38;24.98;;;10.15;;
83495;SDS011;73431;40.794;43.836;2024-01-15T04:02:09;19.85;;;7.70;;
83495;SDS011;73431;40.794;43.836;2024-01-15T04:04:40;19.02;;;8.43;;
83495;SDS011;73431;40.794;43.836;2024-01-15T04:07:09;19.10;;;7.88;;
83495;SDS011;73431;40.794;43.836;2024-01-15T04:09:37;20.35;;;7.30;;
83495;SDS011;73431;40.794;43.836;2024-01-15T04:12:05;27.95;;;7.07;;
83495;SDS011;73431;40.794;43.836;2024-01-15T04:14:33;25.77;;;7.78;;
83495;SDS011;73431;40.794;43.836;2024-01-15T04:17:01;28.45;;;8.82;;
83495;SDS011;73431;40.794;43.836;2024-01-15T04:19:28;27.27;;;7.53;;
83495;SDS011;73431;40.794;43.836;2024-01-15T04:21:56;23.17;;;6.75;;
83495;SDS011;73431;40.794;43.836;2024-01-15T04:24:24;33.22;;;9.93;;
83495;SDS011;73431;40.794;43.836;2024-01-15T04:26:52;27.48;;;9.40;;
83495;SDS011;73431;40.794;43.836;2024-01-15T04:29:20;46.22;;;9.90;;
83495;SDS011;73431;40.794;43.836;2024-01-15T04:31:47;31.02;;;10.02;;
83495;SDS011;73431;40.794;43.836;2024-01-15T04:34:16;24.95;;;11.10;;
83495;SDS011;73431;40.794;43.836;2024-01-15T04:36:43;26.23;;;10.45;;
83495;SDS011;73431;40.794;43.836;2024-01-15T04:39:11;31.15;;;12.15;;
83495;SDS011;73431;40.794;43.836;2024-01-15T04:41:38;32.15;;;14.95;;
83495;SDS011;73431;40.794;43.836;2024-01-15T04:44:06;28.42;;;10.75;;
83495;SDS011;73431;40.794;43.836;2024-01-15T04:46:34;31.95;;;9.32;;
83495;SDS011;73431;40.794;43.836;2024-01-15T04:49:02;43.15;;;9.70;;
83495;SDS011;73431;40.794;43.836;2024-01-15T04:51:29;47.22;;;14.88;;
83495;SDS011;73431;40.794;43.836;2024-01-15T04:53:58;36.28;;;11.43;;
83495;SDS011;73431;40.794;43.836;2024-01-15T04:56:26;21.50;;;9.88;;
83495;SDS011;73431;40.794;43.836;2024-01-15T04:58:53;19.13;;;8.77;;
83495;SDS011;73431;40.794;43.836;2024-01-15T05:01:21;62.50;;;25.13;;
83495;SDS011;73431;40.794;43.836;2024-01-15T05:03:49;70.93;;;30.10;;
83495;SDS011;73431;40.794;43.836;2024-01-15T05:06:17;106.57;;;41.38;;
83495;SDS011;73431;40.794;43.836;2024-01-15T05:08:45;48.40;;;23.70;;
83495;SDS011;73431;40.794;43.836;2024-01-15T05:11:12;38.67;;;18.48;;
83495;SDS011;73431;40.794;43.836;2024-01-15T05:13:40;44.63;;;22.33;;
83495;SDS011;73431;40.794;43.836;2024-01-15T05:16:08;51.40;;;19.42;;
83495;SDS011;73431;40.794;43.836;2024-01-15T05:18:35;65.70;;;26.60;;
83495;SDS011;73431;40.794;43.836;2024-01-15T05:21:04;59.08;;;22.98;;
83495;SDS011;73431;40.794;43.836;2024-01-15T05:23:32;43.75;;;15.80;;
83495;SDS011;73431;40.794;43.836;2024-01-15T05:26:02;24.13;;;15.35;;
83495;SDS011;73431;40.794;43.836;2024-01-15T05:28:30;52.13;;;19.77;;
83495;SDS011;73431;40.794;43.836;2024-01-15T05:30:58;134.60;;;45.28;;
83495;SDS011;73431;40.794;43.836;2024-01-15T05:33:25;64.18;;;29.83;;
83495;SDS011;73431;40.794;43.836;2024-01-15T05:35:53;51.17;;;20.42;;
83495;SDS011;73431;40.794;43.836;2024-01-15T05:38:21;29.75;;;17.58;;
83495;SDS011;73431;40.794;43.836;2024-01-15T05:40:49;43.15;;;22.35;;
83495;SDS011;73431;40.794;43.836;2024-01-15T05:43:17;51.65;;;26.20;;
83495;SDS011;73431;40.794;43.836;2024-01-15T05:45:45;42.53;;;21.67;;
83495;SDS011;73431;40.794;43.836;2024-01-15T05:48:12;63.67;;;21.23;;
83495;SDS011;73431;40.794;43.836;2024-01-15T05:50:41;46.10;;;21.10;;
83495;SDS011;73431;40.794;43.836;2024-01-15T05:53:09;45.97;;;16.67;;
83495;SDS011;73431;40.794;43.836;2024-01-15T05:55:36;57.55;;;23.90;;
83495;SDS011;73431;40.794;43.836;2024-01-15T05:58:05;36.65;;;19.17;;
83495;SDS011;73431;40.794;43.836;2024-01-15T06:00:32;44.53;;;17.90;;
83495;SDS011;73431;40.794;43.836;2024-01-15T06:03:02;29.30;;;13.65;;
83495;SDS011;73431;40.794;43.836;2024-01-15T06:05:30;30.63;;;15.55;;
83495;SDS011;73431;40.794;43.836;2024-01-15T06:07:57;38.70;;;15.00;;
83495;SDS011;73431;40.794;43.836;2024-01-15T06:10:25;42.03;;;18.88;;
83495;SDS011;73431;40.794;43.836;2024-01-15T06:12:53;41.03;;;18.05;;
83495;SDS011;73431;40.794;43.836;2024-01-15T06:15:21;48.78;;;19.88;;
83495;SDS011;73431;40.794;43.836;2024-01-15T06:17:48;66.50;;;26.05;;
83495;SDS011;73431;40.794;43.836;2024-01-15T06:20:16;72.35;;;23.45;;
83495;SDS011;73431;40.794;43.836;2024-01-15T06:22:43;52.08;;;22.02;;
83495;SDS011;73431;40.794;43.836;2024-01-15T06:25:11;60.88;;;22.13;;
83495;SDS011;73431;40.794;43.836;2024-01-15T06:27:38;39.30;;;20.50;;
83495;SDS011;73431;40.794;43.836;2024-01-15T06:30:06;41.67;;;19.77;;
83495;SDS011;73431;40.794;43.836;2024-01-15T06:35:01;33.25;;;12.65;;
83495;SDS011;73431;40.794;43.836;2024-01-15T06:37:29;29.42;;;12.73;;
83495;SDS011;73431;40.794;43.836;2024-01-15T06:39:57;21.92;;;12.07;;
83495;SDS011;73431;40.794;43.836;2024-01-15T06:42:25;31.75;;;13.05;;
83495;SDS011;73431;40.794;43.836;2024-01-15T06:44:52;23.40;;;11.40;;
83495;SDS011;73431;40.794;43.836;2024-01-15T06:47:21;26.15;;;12.57;;
83495;SDS011;73431;40.794;43.836;2024-01-15T06:49:49;25.98;;;13.32;;
83495;SDS011;73431;40.794;43.836;2024-01-15T06:52:19;18.33;;;9.40;;
83495;SDS011;73431;40.794;43.836;2024-01-15T06:54:47;22.33;;;10.13;;
83495;SDS011;73431;40.794;43.836;2024-01-15T06:57:15;20.08;;;9.90;;
83495;SDS011;73431;40.794;43.836;2024-01-15T06:59:42;28.33;;;11.57;;
83495;SDS011;73431;40.794;43.836;2024-01-15T07:02:10;22.02;;;10.00;;
83495;SDS011;73431;40.794;43.836;2024-01-15T07:04:38;20.92;;;9.95;;
83495;SDS011;73431;40.794;43.836;2024-01-15T07:07:09;22.90;;;11.32;;
83495;SDS011;73431;40.794;43.836;2024-01-15T07:09:37;26.35;;;13.40;;
83495;SDS011;73431;40.794;43.836;2024-01-15T07:12:04;24.92;;;11.95;;
83495;SDS011;73431;40.794;43.836;2024-01-15T07:14:32;29.80;;;12.82;;
83495;SDS011;73431;40.794;43.836;2024-01-15T07:17:00;34.80;;;12.07;;
83495;SDS011;73431;40.794;43.836;2024-01-15T07:19:27;29.20;;;14.30;;
83495;SDS011;73431;40.794;43.836;2024-01-15T07:21:55;31.77;;;13.23;;
83495;SDS011;73431;40.794;43.836;2024-01-15T07:24:23;30.33;;;13.88;;
83495;SDS011;73431;40.794;43.836;2024-01-15T07:26:51;36.70;;;15.68;;
83495;SDS011;73431;40.794;43.836;2024-01-15T07:29:19;30.52;;;14.07;;
83495;SDS011;73431;40.794;43.836;2024-01-15T07:31:49;40.95;;;15.70;;
83495;SDS011;73431;40.794;43.836;2024-01-15T07:34:20;23.05;;;12.95;;
83495;SDS011;73431;40.794;43.836;2024-01-15T07:36:49;24.25;;;12.73;;
83495;SDS011;73431;40.794;43.836;2024-01-15T07:39:16;37.55;;;13.25;;
83495;SDS011;73431;40.794;43.836;2024-01-15T07:41:44;24.13;;;13.95;;
83495;SDS011;73431;40.794;43.836;2024-01-15T07:44:12;30.85;;;13.75;;
83495;SDS011;73431;40.794;43.836;2024-01-15T07:46:43;29.85;;;12.77;;
83495;SDS011;73431;40.794;43.836;2024-01-15T07:49:12;27.70;;;14.45;;
83495;SDS011;73431;40.794;43.836;2024-01-15T07:51:40;35.25;;;14.38;;
83495;SDS011;73431;40.794;43.836;2024-01-15T07:54:08;38.65;;;15.60;;
83495;SDS011;73431;40.794;43.836;2024-01-15T07:56:55;30.92;;;14.95;;
83495;SDS011;73431;40.794;43.836;2024-01-15T07:59:33;26.75;;;13.65;;
83495;SDS011;73431;40.794;43.836;2024-01-15T08:02:02;28.38;;;15.30;;
83495;SDS011;73431;40.794;43.836;2024-01-15T08:04:30;35.70;;;16.90;;
83495;SDS011;73431;40.794;43.836;2024-01-15T08:06:58;36.78;;;16.13;;
83495;SDS011;73431;40.794;43.836;2024-01-15T08:09:26;38.22;;;17.50;;
83495;SDS011;73431;40.794;43.836;2024-01-15T08:11:54;35.90;;;17.55;;
83495;SDS011;73431;40.794;43.836;2024-01-15T08:14:22;32.67;;;20.20;;
83495;SDS011;73431;40.794;43.836;2024-01-15T08:16:50;42.15;;;19.38;;
83495;SDS011;73431;40.794;43.836;2024-01-15T08:21:47;35.72;;;16.23;;
83495;SDS011;73431;40.794;43.836;2024-01-15T08:24:15;33.42;;;17.80;;
83495;SDS011;73431;40.794;43.836;2024-01-15T08:26:44;34.00;;;16.58;;
83495;SDS011;73431;40.794;43.836;2024-01-15T08:31:39;32.50;;;18.10;;
83495;SDS011;73431;40.794;43.836;2024-01-15T08:34:08;31.90;;;18.52;;
83495;SDS011;73431;40.794;43.836;2024-01-15T08:39:04;52.40;;;20.83;;
83495;SDS011;73431;40.794;43.836;2024-01-15T08:41:33;40.15;;;19.70;;
83495;SDS011;73431;40.794;43.836;2024-01-15T08:44:02;59.83;;;19.75;;
83495;SDS011;73431;40.794;43.836;2024-01-15T09:42:23;39.30;;;14.98;;
83495;SDS011;73431;40.794;43.836;2024-01-15T09:44:53;40.63;;;18.80;;
83495;SDS011;73431;40.794;43.836;2024-01-15T09:49:49;38.72;;;16.00;;
83495;SDS011;73431;40.794;43.836;2024-01-15T09:52:17;31.58;;;16.20;;
83495;SDS011;73431;40.794;43.836;2024-01-15T09:54:47;35.67;;;16.95;;
83495;SDS011;73431;40.794;43.836;2024-01-15T09:57:16;36.53;;;18.05;;
83495;SDS011;73431;40.794;43.836;2024-01-15T09:59:44;37.10;;;18.38;;
83495;SDS011;73431;40.794;43.836;2024-01-15T10:02:13;50.42;;;18.85;;
83495;SDS011;73431;40.794;43.836;2024-01-15T10:04:45;43.53;;;17.70;;
83495;SDS011;73431;40.794;43.836;2024-01-15T10:08:20;35.03;;;16.75;;
83495;SDS011;73431;40.794;43.836;2024-01-15T10:10:50;36.65;;;17.58;;
83495;SDS011;73431;40.794;43.836;2024-01-15T10:13:18;37.85;;;17.88;;
83495;SDS011;73431;40.794;43.836;2024-01-15T10:15:47;27.85;;;16.50;;
83495;SDS011;73431;40.794;43.836;2024-01-15T10:20:43;27.20;;;14.68;;
83495;SDS011;73431;40.794;43.836;2024-01-15T10:23:12;26.13;;;10.77;;
83495;SDS011;73431;40.794;43.836;2024-01-15T10:25:42;24.63;;;13.07;;
83495;SDS011;73431;40.794;43.836;2024-01-15T10:28:10;21.05;;;10.50;;
83495;SDS011;73431;40.794;43.836;2024-01-15T10:30:38;24.92;;;11.60;;
83495;SDS011;73431;40.794;43.836;2024-01-15T10:33:05;21.60;;;9.77;;
83495;SDS011;73431;40.794;43.836;2024-01-15T10:35:33;23.42;;;9.20;;
83495;SDS011;73431;40.794;43.836;2024-01-15T10:38:02;14.73;;;6.93;;
83495;SDS011;73431;40.794;43.836;2024-01-15T10:40:30;19.98;;;10.20;;
83495;SDS011;73431;40.794;43.836;2024-01-15T10:42:58;16.05;;;7.28;;
83495;SDS011;73431;40.794;43.836;2024-01-15T10:45:25;16.65;;;6.22;;
83495;SDS011;73431;40.794;43.836;2024-01-15T10:47:54;15.18;;;7.07;;
83495;SDS011;73431;40.794;43.836;2024-01-15T10:50:26;14.77;;;7.43;;
83495;SDS011;73431;40.794;43.836;2024-01-15T10:52:57;18.33;;;8.93;;
83495;SDS011;73431;40.794;43.836;2024-01-15T10:55:25;13.80;;;8.18;;
83495;SDS011;73431;40.794;43.836;2024-01-15T10:57:53;13.02;;;7.35;;
83495;SDS011;73431;40.794;43.836;2024-01-15T11:00:23;11.57;;;6.78;;
83495;SDS011;73431;40.794;43.836;2024-01-15T11:02:52;14.70;;;7.75;;
83495;SDS011;73431;40.794;43.836;2024-01-15T11:05:23;14.25;;;7.93;;
83495;SDS011;73431;40.794;43.836;2024-01-15T11:07:56;13.32;;;7.35;;
83495;SDS011;73431;40.794;43.836;2024-01-15T11:13:22;15.77;;;6.85;;
83495;SDS011;73431;40.794;43.836;2024-01-15T11:16:09;15.10;;;7.28;;
83495;SDS011;73431;40.794;43.836;2024-01-15T11:19:22;19.52;;;6.40;;
83495;SDS011;73431;40.794;43.836;2024-01-15T11:21:31;14.88;;;7.50;;
83495;SDS011;73431;40.794;43.836;2024-01-15T11:23:59;20.75;;;8.45;;
83495;SDS011;73431;40.794;43.836;2024-01-15T11:29:01;16.17;;;7.63;;
83495;SDS011;73431;40.794;43.836;2024-01-15T11:34:05;15.80;;;6.95;;
83495;SDS011;73431;40.794;43.836;2024-01-15T11:41:58;16.98;;;8.32;;
83495;SDS011;73431;40.794;43.836;2024-01-15T11:44:28;13.48;;;5.88;;
83495;SDS011;73431;40.794;43.836;2024-01-15T11:49:31;16.52;;;7.85;;
83495;SDS011;73431;40.794;43.836;2024-01-15T11:52:23;12.25;;;6.30;;
83495;SDS011;73431;40.794;43.836;2024-01-15T11:57:41;9.30;;;5.13;;
83495;SDS011;73431;40.794;43.836;2024-01-15T12:00:13;14.63;;;7.03;;
83495;SDS011;73431;40.794;43.836;2024-01-15T12:02:43;15.02;;;7.60;;
83495;SDS011;73431;40.794;43.836;2024-01-15T12:05:12;13.80;;;7.53;;
83495;SDS011;73431;40.794;43.836;2024-01-15T12:07:42;18.55;;;9.95;;
83495;SDS011;73431;40.794;43.836;2024-01-15T12:10:11;15.77;;;8.50;;
83495;SDS011;73431;40.794;43.836;2024-01-15T12:13:04;18.98;;;8.85;;
83495;SDS011;73431;40.794;43.836;2024-01-15T12:15:38;19.83;;;9.00;;
83495;SDS011;73431;40.794;43.836;2024-01-15T12:18:14;15.80;;;7.63;;
83495;SDS011;73431;40.794;43.836;2024-01-15T12:20:44;14.75;;;7.75;;
83495;SDS011;73431;40.794;43.836;2024-01-15T12:23:15;24.58;;;8.75;;
83495;SDS011;73431;40.794;43.836;2024-01-15T12:25:44;31.67;;;9.68;;
83495;SDS011;73431;40.794;43.836;2024-01-15T12:28:14;19.00;;;8.32;;
83495;SDS011;73431;40.794;43.836;2024-01-15T12:30:42;13.32;;;7.30;;
83495;SDS011;73431;40.794;43.836;2024-01-15T12:33:11;150.90;;;91.47;;
83495;SDS011;73431;40.794;43.836;2024-01-15T12:35:40;27.67;;;16.73;;
83495;SDS011;73431;40.794;43.836;2024-01-15T12:38:08;23.33;;;10.30;;
83495;SDS011;73431;40.794;43.836;2024-01-15T12:40:38;15.18;;;8.38;;
83495;SDS011;73431;40.794;43.836;2024-01-15T12:43:06;31.85;;;9.00;;
83495;SDS011;73431;40.794;43.836;2024-01-15T12:45:36;13.75;;;7.05;;
83495;SDS011;73431;40.794;43.836;2024-01-15T12:48:05;20.27;;;7.95;;
83495;SDS011;73431;40.794;43.836;2024-01-15T12:53:01;16.02;;;7.47;;
83495;SDS011;73431;40.794;43.836;2024-01-15T12:55:29;19.67;;;7.65;;
83495;SDS011;73431;40.794;43.836;2024-01-15T12:57:57;15.00;;;7.95;;
83495;SDS011;73431;40.794;43.836;2024-01-15T13:00:25;15.95;;;8.10;;
83495;SDS011;73431;40.794;43.836;2024-01-15T13:02:53;24.33;;;9.43;;
83495;SDS011;73431;40.794;43.836;2024-01-15T13:05:22;16.85;;;8.30;;
83495;SDS011;73431;40.794;43.836;2024-01-15T13:07:51;20.75;;;8.65;;
83495;SDS011;73431;40.794;43.836;2024-01-15T13:10:19;17.45;;;7.70;;
83495;SDS011;73431;40.794;43.836;2024-01-15T13:12:48;23.45;;;10.18;;
83495;SDS011;73431;40.794;43.836;2024-01-15T13:15:16;21.65;;;8.65;;
83495;SDS011;73431;40.794;43.836;2024-01-15T13:17:44;17.88;;;9.13;;
83495;SDS011;73431;40.794;43.836;2024-01-15T13:22:40;33.42;;;13.85;;
83495;SDS011;73431;40.794;43.836;2024-01-15T13:25:11;16.67;;;7.72;;
83495;SDS011;73431;40.794;43.836;2024-01-15T13:27:39;18.65;;;7.55;;
83495;SDS011;73431;40.794;43.836;2024-01-15T13:30:09;25.95;;;10.52;;
83495;SDS011;73431;40.794;43.836;2024-01-15T13:32:38;15.85;;;8.30;;
83495;SDS011;73431;40.794;43.836;2024-01-15T13:37:37;18.50;;;9.65;;
83495;SDS011;73431;40.794;43.836;2024-01-15T13:40:05;27.10;;;13.48;;
83495;SDS011;73431;40.794;43.836;2024-01-15T13:42:35;29.90;;;14.32;;
83495;SDS011;73431;40.794;43.836;2024-01-15T13:45:06;30.25;;;13.30;;
83495;SDS011;73431;40.794;43.836;2024-01-15T13:47:34;22.15;;;11.40;;
83495;SDS011;73431;40.794;43.836;2024-01-15T13:50:02;27.38;;;12.05;;
83495;SDS011;73431;40.794;43.836;2024-01-15T13:54:58;23.20;;;11.45;;
83495;SDS011;73431;40.794;43.836;2024-01-15T13:57:27;26.83;;;11.55;;
83495;SDS011;73431;40.794;43.836;2024-01-15T13:59:55;31.70;;;14.05;;
83495;SDS011;73431;40.794;43.836;2024-01-15T14:02:23;29.90;;;13.77;;
83495;SDS011;73431;40.794;43.836;2024-01-15T14:04:53;32.95;;;16.35;;
83495;SDS011;73431;40.794;43.836;2024-01-15T14:07:21;41.58;;;18.95;;
83495;SDS011;73431;40.794;43.836;2024-01-15T14:09:49;58.67;;;22.73;;
83495;SDS011;73431;40.794;43.836;2024-01-15T14:12:17;45.28;;;22.05;;
83495;SDS011;73431;40.794;43.836;2024-01-15T14:14:45;96.75;;;38.00;;
83495;SDS011;73431;40.794;43.836;2024-01-15T14:17:13;87.28;;;32.30;;
83495;SDS011;73431;40.794;43.836;2024-01-15T14:19:41;53.88;;;24.10;;
83495;SDS011;73431;40.794;43.836;2024-01-15T14:22:08;56.08;;;27.25;;
83495;SDS011;73431;40.794;43.836;2024-01-15T14:24:37;72.38;;;27.10;;
83495;SDS011;73431;40.794;43.836;2024-01-15T14:27:04;76.38;;;33.72;;
83495;SDS011;73431;40.794;43.836;2024-01-15T14:29:34;40.70;;;18.15;;
83495;SDS011;73431;40.794;43.836;2024-01-15T14:32:03;41.97;;;16.90;;
83495;SDS011;73431;40.794;43.836;2024-01-15T14:34:31;49.95;;;21.77;;
83495;SDS011;73431;40.794;43.836;2024-01-15T14:36:59;46.88;;;22.52;;
83495;SDS011;73431;40.794;43.836;2024-01-15T14:39:27;69.13;;;25.85;;
83495;SDS011;73431;40.794;43.836;2024-01-15T14:41:55;55.95;;;23.73;;
83495;SDS011;73431;40.794;43.836;2024-01-15T14:44:24;63.67;;;27.02;;
83495;SDS011;73431;40.794;43.836;2024-01-15T14:46:52;78.28;;;26.95;;
83495;SDS011;73431;40.794;43.836;2024-01-15T14:49:19;50.47;;;17.60;;
83495;SDS011;73431;40.794;43.836;2024-01-15T14:51:48;59.85;;;20.70;;
83495;SDS011;73431;40.794;43.836;2024-01-15T14:54:16;60.53;;;20.63;;
83495;SDS011;73431;40.794;43.836;2024-01-15T14:56:45;62.42;;;21.55;;
83495;SDS011;73431;40.794;43.836;2024-01-15T14:59:13;62.17;;;23.20;;
83495;SDS011;73431;40.794;43.836;2024-01-15T15:01:41;101.53;;;34.42;;
83495;SDS011;73431;40.794;43.836;2024-01-15T15:04:09;109.22;;;41.20;;
83495;SDS011;73431;40.794;43.836;2024-01-15T15:06:37;99.75;;;42.08;;
83495;SDS011;73431;40.794;43.836;2024-01-15T15:09:06;90.53;;;36.65;;
83495;SDS011;73431;40.794;43.836;2024-01-15T15:11:37;88.65;;;36.90;;
83495;SDS011;73431;40.794;43.836;2024-01-15T15:14:05;84.25;;;40.00;;
83495;SDS011;73431;40.794;43.836;2024-01-15T15:16:33;109.80;;;41.17;;
83495;SDS011;73431;40.794;43.836;2024-01-15T15:19:01;118.20;;;48.25;;
83495;SDS011;73431;40.794;43.836;2024-01-15T15:21:29;103.38;;;43.45;;
83495;SDS011;73431;40.794;43.836;2024-01-15T15:23:57;102.88;;;41.92;;
83495;SDS011;73431;40.794;43.836;2024-01-15T15:26:25;78.80;;;36.47;;
83495;SDS011;73431;40.794;43.836;2024-01-15T15:28:52;73.15;;;30.25;;
83495;SDS011;73431;40.794;43.836;2024-01-15T15:31:20;60.83;;;27.95;;
83495;SDS011;73431;40.794;43.836;2024-01-15T15:33:48;53.92;;;23.13;;
83495;SDS011;73431;40.794;43.836;2024-01-15T15:36:16;44.30;;;18.05;;
83495;SDS011;73431;40.794;43.836;2024-01-15T15:38:45;20.77;;;11.35;;
83495;SDS011;73431;40.794;43.836;2024-01-15T15:41:13;28.63;;;11.57;;
83495;SDS011;73431;40.794;43.836;2024-01-15T15:43:42;26.50;;;11.60;;
83495;SDS011;73431;40.794;43.836;2024-01-15T15:46:09;24.80;;;12.02;;
83495;SDS011;73431;40.794;43.836;2024-01-15T15:48:37;25.60;;;11.93;;
83495;SDS011;73431;40.794;43.836;2024-01-15T15:51:05;28.70;;;15.98;;
83495;SDS011;73431;40.794;43.836;2024-01-15T15:53:33;63.67;;;16.60;;
83495;SDS011;73431;40.794;43.836;2024-01-15T15:56:00;52.40;;;17.08;;
83495;SDS011;73431;40.794;43.836;2024-01-15T15:58:28;49.45;;;20.85;;
83495;SDS011;73431;40.794;43.836;2024-01-15T16:00:56;71.68;;;27.23;;
83495;SDS011;73431;40.794;43.836;2024-01-15T16:03:25;79.10;;;27.98;;
83495;SDS011;73431;40.794;43.836;2024-01-15T16:05:53;70.88;;;25.85;;
83495;SDS011;73431;40.794;43.836;2024-01-15T16:08:21;74.38;;;27.40;;
83495;SDS011;73431;40.794;43.836;2024-01-15T16:10:49;73.03;;;28.63;;
83495;SDS011;73431;40.794;43.836;2024-01-15T16:13:19;82.47;;;32.75;;
83495;SDS011;73431;40.794;43.836;2024-01-15T16:15:47;89.43;;;35.03;;
83495;SDS011;73431;40.794;43.836;2024-01-15T16:18:15;99.68;;;34.50;;